logo
Rechercher aéroport 
image banner adimage banner adimage banner ad
image banner ad

KUKI - Ukiah Muni

Situé à Ukiah, United States

ICAO - UKI, IATA -

Données fournies par Airmate  

Information générale

Coordonnées: N39°7'33" W123°12'3"
Élévation : 616 feet MSL.
Variation magnétique : 17° East
Voir autres Aéroports à California

Données opérationnelles

Special qualification required
Heure actuelle UTC:
Heure actuelle locale:
Météo
METAR: KUKI 281256Z AUTO 00000KT 10SM CLR 10/08 A3001 RMK AO2 SLP157 T01000078 $
TAF: KUKI 281128Z 2812/2912 VRB02KT P6SM SKC FM281700 32002KT P6SM SCT050 FM282200 30010G15KT P6SM SCT020 FM290500 02004KT P6SM FEW015
Voir NOTAMs / SUP AIP / TFR affectant cet aéroport [VIEW]
Fréquences de communication: [VIEW]

Pistes:

Identifiant RWYQFULongueur (ft)Largeur (ft)SurfaceLDA (ft)
15168°4423150ASPH
33348°4423150ASPH

Coordonnées de l'aéroport

Adresse: Ukiah United States

Autres services d'aviation

Écoles de pilotage

Ukiah Aviation

Ukiah Aviation
dhudsons@comcast.net+1(707)463-2655

Vue satellite de KUKI